createdAt,value
2019-05-30T00:00:17.498Z,12.10
2019-05-30T00:00:47.809Z,12.10
2019-05-30T00:01:22.337Z,12.10
2019-05-30T00:01:58.615Z,12.10
2019-05-30T00:02:33.987Z,12.10
2019-05-30T00:03:08.662Z,12.10
2019-05-30T00:03:43.840Z,12.10
2019-05-30T00:04:19.013Z,12.10
2019-05-30T00:04:54.087Z,12.00
2019-05-30T00:05:29.447Z,12.00
2019-05-30T00:06:04.717Z,12.00
2019-05-30T00:06:39.420Z,12.00
2019-05-30T00:07:14.545Z,12.10
2019-05-30T00:07:49.901Z,12.10
2019-05-30T00:08:24.774Z,12.10
2019-05-30T00:09:00.492Z,12.10
2019-05-30T00:09:36.284Z,12.10
2019-05-30T00:10:11.384Z,12.10
2019-05-30T00:10:46.581Z,12.10
2019-05-30T00:11:21.712Z,12.10
2019-05-30T00:11:56.632Z,12.10
2019-05-30T00:12:31.887Z,12.10
2019-05-30T00:13:07.096Z,12.10
2019-05-30T00:13:41.686Z,12.10
2019-05-30T00:14:16.869Z,12.20
2019-05-30T00:14:54.495Z,12.20
2019-05-30T00:15:29.132Z,12.20
2019-05-30T00:16:05.641Z,12.20
2019-05-30T00:16:41.326Z,12.10
2019-05-30T00:17:15.843Z,12.20
2019-05-30T00:17:51.024Z,12.10
2019-05-30T00:18:26.232Z,12.10
2019-05-30T00:19:00.941Z,12.10
2019-05-30T00:19:36.208Z,12.10
2019-05-30T00:20:11.744Z,12.10
2019-05-30T00:20:46.336Z,12.10
2019-05-30T00:21:21.501Z,12.10
2019-05-30T00:21:56.675Z,12.10
2019-05-30T00:22:31.320Z,12.10
2019-05-30T00:23:06.492Z,12.10
2019-05-30T00:23:41.688Z,12.00
2019-05-30T00:24:16.270Z,12.00
2019-05-30T00:24:51.511Z,12.00
2019-05-30T00:25:26.640Z,12.00
2019-05-30T00:26:01.472Z,12.00
2019-05-30T00:26:36.639Z,12.00
2019-05-30T00:27:11.864Z,12.00
2019-05-30T00:27:46.460Z,12.00
2019-05-30T00:28:21.646Z,12.00
2019-05-30T00:28:58.177Z,12.00
2019-05-30T00:29:32.950Z,12.00
2019-05-30T00:30:23.121Z,12.00
2019-05-30T00:30:45.550Z,12.00
2019-05-30T00:31:20.119Z,12.00
2019-05-30T00:31:55.503Z,12.00
2019-05-30T00:32:30.703Z,12.00
2019-05-30T00:33:05.313Z,12.00
2019-05-30T00:33:40.637Z,12.00
2019-05-30T00:34:15.936Z,12.00
2019-05-30T00:34:50.636Z,12.00
2019-05-30T00:35:25.747Z,12.00
2019-05-30T00:36:01.831Z,12.00
2019-05-30T00:36:36.988Z,12.00
2019-05-30T00:37:12.176Z,12.00
2019-05-30T00:37:47.360Z,11.90
2019-05-30T00:38:21.962Z,11.90
2019-05-30T00:38:57.680Z,11.90
2019-05-30T00:39:32.924Z,11.90
2019-05-30T00:40:08.918Z,11.90
2019-05-30T00:40:44.307Z,11.90
2019-05-30T00:41:19.915Z,11.90
2019-05-30T00:41:55.869Z,11.90
2019-05-30T00:42:31.231Z,11.90
2019-05-30T00:43:06.587Z,11.90
2019-05-30T00:43:41.132Z,11.90
2019-05-30T00:44:16.319Z,11.90
2019-05-30T00:44:51.501Z,11.90
2019-05-30T00:45:28.999Z,11.90
2019-05-30T00:46:04.278Z,11.90
2019-05-30T00:46:39.454Z,11.90
2019-05-30T00:47:14.098Z,11.80
2019-05-30T00:47:49.247Z,11.90
2019-05-30T00:48:24.362Z,11.80
2019-05-30T00:49:00.159Z,11.80
2019-05-30T00:49:35.390Z,11.90
2019-05-30T00:50:10.894Z,11.90
2019-05-30T00:50:45.443Z,11.90
2019-05-30T00:51:20.634Z,11.90
2019-05-30T00:51:56.443Z,11.90
2019-05-30T00:52:31.101Z,11.90
2019-05-30T00:53:07.017Z,11.90
2019-05-30T00:53:42.254Z,11.90
2019-05-30T00:54:16.863Z,11.90
2019-05-30T00:54:52.057Z,11.80
2019-05-30T00:55:27.393Z,11.80
2019-05-30T00:56:03.127Z,11.80
2019-05-30T00:56:38.351Z,11.80
2019-05-30T00:57:13.555Z,11.70
2019-05-30T00:57:48.091Z,11.70
2019-05-30T00:58:23.295Z,11.70
2019-05-30T00:58:58.772Z,11.70
2019-05-30T00:59:33.383Z,11.70
2019-05-30T01:00:08.800Z,11.60
2019-05-30T01:00:44.934Z,11.60
2019-05-30T01:01:19.529Z,11.60
2019-05-30T01:01:54.728Z,11.60
2019-05-30T01:02:29.854Z,11.60
2019-05-30T01:03:06.463Z,11.60
2019-05-30T01:03:41.173Z,11.60
2019-05-30T01:04:16.290Z,11.60
2019-05-30T01:04:50.901Z,11.60
2019-05-30T01:05:27.246Z,11.60
2019-05-30T01:06:02.971Z,11.70
2019-05-30T01:06:37.777Z,11.60
2019-05-30T01:07:12.993Z,11.70
2019-05-30T01:07:48.113Z,11.60
2019-05-30T01:08:22.730Z,11.60
2019-05-30T01:08:59.055Z,11.60
2019-05-30T01:09:34.317Z,11.60
2019-05-30T01:10:09.576Z,11.60
2019-05-30T01:10:44.775Z,11.60
2019-05-30T01:11:19.957Z,11.60
2019-05-30T01:11:54.541Z,11.60
2019-05-30T01:12:29.722Z,11.50
2019-05-30T01:13:05.241Z,11.50
2019-05-30T01:13:40.286Z,11.50
2019-05-30T01:14:15.477Z,11.50
2019-05-30T01:14:50.665Z,11.50
2019-05-30T01:15:25.264Z,11.50
2019-05-30T01:16:01.039Z,11.50
2019-05-30T01:16:36.332Z,11.50
2019-05-30T01:17:10.932Z,11.50
2019-05-30T01:17:46.113Z,11.50
2019-05-30T01:18:21.227Z,11.50
2019-05-30T01:18:56.935Z,11.40
2019-05-30T01:19:32.140Z,11.40
2019-05-30T01:20:07.799Z,11.40
2019-05-30T01:20:44.130Z,11.40
2019-05-30T01:21:19.296Z,11.40
2019-05-30T01:21:54.580Z,11.50
2019-05-30T01:22:29.267Z,11.50
2019-05-30T01:23:05.365Z,11.50
2019-05-30T01:23:41.589Z,11.40
2019-05-30T01:24:16.238Z,11.40
2019-05-30T01:24:51.528Z,11.40
2019-05-30T01:25:26.695Z,11.30
2019-05-30T01:26:01.419Z,11.30
2019-05-30T01:26:36.787Z,11.30
2019-05-30T01:27:12.107Z,11.30
2019-05-30T01:27:46.682Z,11.20
2019-05-30T01:28:21.869Z,11.20
2019-05-30T01:28:57.327Z,11.20
2019-05-30T01:29:31.964Z,11.20
2019-05-30T01:30:10.956Z,11.20
2019-05-30T01:30:58.838Z,11.20
2019-05-30T01:31:22.736Z,11.30
2019-05-30T01:31:57.848Z,11.20
2019-05-30T01:32:33.043Z,11.20
2019-05-30T01:33:08.090Z,11.30
2019-05-30T01:33:43.347Z,11.30
2019-05-30T01:34:18.527Z,11.30
2019-05-30T01:34:53.228Z,11.30
2019-05-30T01:35:28.395Z,11.30
2019-05-30T01:36:03.806Z,11.30
2019-05-30T01:36:38.500Z,11.30
2019-05-30T01:37:13.863Z,11.30
2019-05-30T01:37:49.061Z,11.30
2019-05-30T01:38:23.663Z,11.20
2019-05-30T01:38:59.606Z,11.20
2019-05-30T01:39:34.804Z,11.20
2019-05-30T01:40:10.116Z,11.20
2019-05-30T01:40:45.306Z,11.20
2019-05-30T01:41:20.894Z,11.20
2019-05-30T01:41:55.519Z,11.30
2019-05-30T01:42:30.727Z,11.30
2019-05-30T01:43:06.225Z,11.30
2019-05-30T01:43:40.847Z,11.30
2019-05-30T01:44:16.024Z,11.30
2019-05-30T01:44:51.192Z,11.30
2019-05-30T01:45:25.707Z,11.30
2019-05-30T01:46:02.023Z,11.30
2019-05-30T01:46:37.329Z,11.30
2019-05-30T01:47:11.902Z,11.30
2019-05-30T01:47:47.108Z,11.40
2019-05-30T01:48:22.348Z,11.40
2019-05-30T01:48:58.093Z,11.40
2019-05-30T01:49:33.401Z,11.40
2019-05-30T01:50:13.406Z,11.40
2019-05-30T01:50:48.076Z,11.40
2019-05-30T01:51:23.211Z,11.40
2019-05-30T01:52:17.649Z,11.40
2019-05-30T01:52:52.833Z,11.40
2019-05-30T01:53:28.011Z,11.40
2019-05-30T01:54:03.139Z,11.40
2019-05-30T01:54:37.655Z,11.40
2019-05-30T01:55:13.920Z,11.40
2019-05-30T01:55:49.086Z,11.40
2019-05-30T01:56:23.706Z,11.50
2019-05-30T01:57:00.463Z,11.50
2019-05-30T01:57:36.461Z,11.50
2019-05-30T01:58:11.021Z,11.50
2019-05-30T01:58:46.141Z,11.50
2019-05-30T01:59:21.246Z,11.50
2019-05-30T01:59:55.843Z,11.50
2019-05-30T02:00:41.102Z,11.50
2019-05-30T02:01:24.364Z,11.50
2019-05-30T02:01:52.641Z,11.50
2019-05-30T02:02:28.109Z,11.50
2019-05-30T02:03:03.293Z,11.50
2019-05-30T02:03:37.891Z,11.50
2019-05-30T02:04:13.088Z,11.60
2019-05-30T02:04:48.262Z,11.60
2019-05-30T02:05:22.987Z,11.50
2019-05-30T02:05:58.917Z,11.50
2019-05-30T02:06:37.912Z,11.50
2019-05-30T02:07:11.533Z,11.40
2019-05-30T02:07:46.821Z,11.40
2019-05-30T02:08:22.073Z,11.40
2019-05-30T02:08:56.691Z,11.40
2019-05-30T02:09:31.784Z,11.40
2019-05-30T02:10:09.746Z,11.40
2019-05-30T02:10:44.536Z,11.40
2019-05-30T02:11:19.735Z,11.40
2019-05-30T02:11:54.947Z,11.40
2019-05-30T02:12:29.532Z,11.40
2019-05-30T02:13:05.585Z,11.40
2019-05-30T02:13:40.949Z,11.40
2019-05-30T02:14:15.492Z,11.50
2019-05-30T02:14:50.758Z,11.40
2019-05-30T02:15:25.933Z,11.40
2019-05-30T02:16:01.576Z,11.40
2019-05-30T02:16:36.844Z,11.40
2019-05-30T02:17:11.956Z,11.40
2019-05-30T02:17:47.535Z,11.30
2019-05-30T02:18:22.736Z,11.30
2019-05-30T02:18:57.912Z,11.30
2019-05-30T02:19:33.665Z,11.30
2019-05-30T02:20:10.162Z,11.30
2019-05-30T02:20:45.452Z,11.30
2019-05-30T02:21:20.063Z,11.30
2019-05-30T02:21:55.241Z,11.30
2019-05-30T02:22:30.368Z,11.30
2019-05-30T02:23:06.130Z,11.30
2019-05-30T02:23:41.859Z,11.30
2019-05-30T02:24:17.064Z,11.30
2019-05-30T02:24:52.027Z,11.30
2019-05-30T02:25:32.891Z,11.30
2019-05-30T02:26:08.304Z,11.30
2019-05-30T02:26:43.003Z,11.20
2019-05-30T02:27:18.183Z,11.30
2019-05-30T02:27:53.684Z,11.20
2019-05-30T02:28:28.251Z,11.20
2019-05-30T02:29:04.195Z,11.20
2019-05-30T02:29:39.772Z,11.20
2019-05-30T02:30:15.251Z,11.20
2019-05-30T02:30:50.468Z,11.20
2019-05-30T02:31:38.475Z,11.20
2019-05-30T02:32:03.122Z,11.20
2019-05-30T02:32:38.692Z,11.20
2019-05-30T02:33:13.789Z,11.30
2019-05-30T02:33:48.320Z,11.20
2019-05-30T02:34:23.553Z,11.30
2019-05-30T02:35:00.711Z,11.30
2019-05-30T02:35:35.452Z,11.20
2019-05-30T02:36:12.513Z,11.20
2019-05-30T02:36:47.533Z,11.20
2019-05-30T02:37:22.120Z,11.20
2019-05-30T02:37:57.391Z,11.20
2019-05-30T02:38:32.617Z,11.20
2019-05-30T02:39:09.844Z,11.20
2019-05-30T02:39:45.094Z,11.20
2019-05-30T02:40:20.609Z,11.10
2019-05-30T02:40:55.211Z,11.10
2019-05-30T02:41:30.463Z,11.10
2019-05-30T02:42:07.422Z,11.10
2019-05-30T02:42:42.156Z,11.10
2019-05-30T02:43:17.407Z,11.10
2019-05-30T02:43:52.602Z,11.20
2019-05-30T02:44:27.123Z,11.20
2019-05-30T02:45:03.732Z,11.20
2019-05-30T02:45:39.017Z,11.20
2019-05-30T02:46:13.605Z,11.20
2019-05-30T02:46:48.781Z,11.20
2019-05-30T02:47:23.944Z,11.20
2019-05-30T02:47:58.456Z,11.20
2019-05-30T02:48:33.629Z,11.20
2019-05-30T02:49:11.471Z,11.20
2019-05-30T02:49:45.049Z,11.30
2019-05-30T02:50:20.595Z,11.20
2019-05-30T02:50:55.749Z,11.20
2019-05-30T02:51:30.270Z,11.30
2019-05-30T02:52:06.760Z,11.30
2019-05-30T02:52:43.210Z,11.30
2019-05-30T02:53:17.813Z,11.20
2019-05-30T02:53:53.001Z,11.30
2019-05-30T02:54:28.229Z,11.20
2019-05-30T02:55:03.989Z,11.20
2019-05-30T02:55:40.040Z,11.20
2019-05-30T02:56:15.202Z,11.20
2019-05-30T02:56:49.729Z,11.20
2019-05-30T02:57:24.953Z,11.20
2019-05-30T02:58:01.302Z,11.20
2019-05-30T02:58:36.017Z,11.20
2019-05-30T02:59:13.381Z,11.20
2019-05-30T02:59:48.016Z,11.20
2019-05-30T03:00:25.683Z,11.20
2019-05-30T03:01:01.858Z,11.20
2019-05-30T03:01:55.994Z,11.20
2019-05-30T03:02:17.111Z,11.20
2019-05-30T03:02:50.698Z,11.20
2019-05-30T03:03:25.904Z,11.20
2019-05-30T03:04:01.905Z,11.20
2019-05-30T03:04:37.285Z,11.20
2019-05-30T03:05:31.970Z,11.20
2019-05-30T03:06:08.624Z,11.20
2019-05-30T03:06:43.581Z,11.20
2019-05-30T03:07:18.835Z,11.20
2019-05-30T03:07:53.410Z,11.20
2019-05-30T03:08:28.614Z,11.20
2019-05-30T03:09:06.155Z,11.20
2019-05-30T03:09:41.111Z,11.20
2019-05-30T03:10:17.039Z,11.20
2019-05-30T03:10:52.898Z,11.20
2019-05-30T03:11:27.631Z,11.20
2019-05-30T03:12:04.109Z,11.30
2019-05-30T03:12:39.962Z,11.30
2019-05-30T03:13:14.720Z,11.30
2019-05-30T03:13:53.771Z,11.30
2019-05-30T03:14:29.015Z,11.30
2019-05-30T03:15:09.545Z,11.40
2019-05-30T03:15:44.322Z,11.40
2019-05-30T03:16:19.463Z,11.40
2019-05-30T03:16:54.036Z,11.40
2019-05-30T03:17:29.573Z,11.40
2019-05-30T03:18:07.311Z,11.40
2019-05-30T03:18:41.152Z,11.40
2019-05-30T03:19:16.409Z,11.40
2019-05-30T03:19:51.532Z,11.50
2019-05-30T03:20:26.260Z,11.50
2019-05-30T03:21:03.151Z,11.50
2019-05-30T03:21:38.476Z,11.50
2019-05-30T03:22:13.993Z,11.50
2019-05-30T03:22:49.340Z,11.50
2019-05-30T03:23:24.903Z,11.50
2019-05-30T03:23:59.497Z,11.50
2019-05-30T03:24:34.726Z,11.50
2019-05-30T03:25:12.978Z,11.50
2019-05-30T03:25:46.345Z,11.40
2019-05-30T03:26:21.587Z,11.50
2019-05-30T03:26:56.819Z,11.40
2019-05-30T03:27:31.560Z,11.50
2019-05-30T03:28:07.603Z,11.40
2019-05-30T03:28:43.661Z,11.50
2019-05-30T03:29:18.328Z,11.50
2019-05-30T03:29:53.484Z,11.50
2019-05-30T03:30:29.919Z,11.50
2019-05-30T03:31:14.219Z,11.50
2019-05-30T03:31:45.549Z,11.50
2019-05-30T03:33:07.631Z,11.50
2019-05-30T03:33:40.765Z,11.50
2019-05-30T03:34:22.887Z,11.50
2019-05-30T03:34:47.301Z,11.50
2019-05-30T03:35:29.416Z,11.50
2019-05-30T03:35:59.691Z,11.50
2019-05-30T03:36:34.245Z,11.50
2019-05-30T03:37:18.900Z,11.50
2019-05-30T03:37:46.439Z,11.50
2019-05-30T03:38:21.020Z,11.50
2019-05-30T03:38:56.181Z,11.50
2019-05-30T03:39:31.337Z,11.50
2019-05-30T03:40:07.229Z,11.50
2019-05-30T03:40:42.454Z,11.50
2019-05-30T03:41:17.589Z,11.40
2019-05-30T03:41:52.171Z,11.40
2019-05-30T03:42:27.359Z,11.40
2019-05-30T03:43:04.104Z,11.40
2019-05-30T03:43:39.076Z,11.40
2019-05-30T03:44:15.627Z,11.50
2019-05-30T03:44:51.469Z,11.50
2019-05-30T03:45:27.303Z,11.50
2019-05-30T03:46:04.069Z,11.50
2019-05-30T03:46:42.832Z,11.50
2019-05-30T03:47:20.347Z,11.50
2019-05-30T03:47:58.694Z,11.40
2019-05-30T03:48:35.799Z,11.40
2019-05-30T03:49:15.037Z,11.40
2019-05-30T03:49:51.779Z,11.40
2019-05-30T03:50:30.056Z,11.40
2019-05-30T03:51:08.871Z,11.30
2019-05-30T03:51:45.627Z,11.40
2019-05-30T03:52:21.874Z,11.30
2019-05-30T03:52:56.520Z,11.30
2019-05-30T03:53:31.685Z,11.30
2019-05-30T03:54:09.305Z,11.30
2019-05-30T03:54:44.097Z,11.30
2019-05-30T03:55:20.705Z,11.30
2019-05-30T03:55:59.352Z,11.30
2019-05-30T03:56:39.890Z,11.30
2019-05-30T03:57:18.230Z,11.30
2019-05-30T03:58:02.586Z,11.30
2019-05-30T03:58:49.111Z,11.30
2019-05-30T03:59:39.142Z,11.30
2019-05-30T04:00:45.593Z,11.30
2019-05-30T04:01:40.290Z,11.30
2019-05-30T04:02:26.737Z,11.30
2019-05-30T04:03:06.660Z,11.30
2019-05-30T04:04:14.496Z,11.30
2019-05-30T04:05:09.263Z,11.30
2019-05-30T04:05:50.764Z,11.30
2019-05-30T04:06:34.090Z,11.30
2019-05-30T04:07:19.567Z,11.30
2019-05-30T04:07:56.917Z,11.30
2019-05-30T04:08:34.565Z,11.20
2019-05-30T04:09:21.253Z,11.20
2019-05-30T04:09:52.745Z,11.30
2019-05-30T04:10:33.177Z,11.30
2019-05-30T04:11:12.522Z,11.30
2019-05-30T04:11:54.401Z,11.30
2019-05-30T04:12:44.122Z,11.30
2019-05-30T04:13:25.165Z,11.30
2019-05-30T04:14:03.396Z,11.30
2019-05-30T04:14:41.071Z,11.30
2019-05-30T04:15:36.268Z,11.30
2019-05-30T04:16:13.379Z,11.30
2019-05-30T04:16:47.649Z,11.30
2019-05-30T04:17:22.835Z,11.30
2019-05-30T04:17:57.996Z,11.30
2019-05-30T04:18:32.510Z,11.30
2019-05-30T04:19:08.112Z,11.30
2019-05-30T04:19:43.299Z,11.30
2019-05-30T04:20:22.561Z,11.30
2019-05-30T04:20:54.693Z,11.30
2019-05-30T04:21:29.849Z,11.30
2019-05-30T04:22:04.669Z,11.30
2019-05-30T04:22:40.116Z,11.30
2019-05-30T04:23:16.659Z,11.40
2019-05-30T04:23:51.544Z,11.40
2019-05-30T04:24:26.673Z,11.50
2019-05-30T04:25:01.848Z,11.50
2019-05-30T04:25:36.440Z,11.50
2019-05-30T04:26:11.605Z,11.50
2019-05-30T04:26:46.706Z,11.60
2019-05-30T04:27:21.565Z,11.60
2019-05-30T04:27:56.725Z,11.60
2019-05-30T04:28:31.827Z,11.70
2019-05-30T04:29:07.981Z,11.70
2019-05-30T04:29:43.216Z,11.70
2019-05-30T04:30:18.634Z,11.70
2019-05-30T04:30:53.267Z,11.70
2019-05-30T04:31:28.434Z,11.70
2019-05-30T04:32:03.557Z,11.70
2019-05-30T04:32:38.151Z,11.80
2019-05-30T04:33:22.551Z,11.80
2019-05-30T04:33:50.118Z,11.70
2019-05-30T04:34:24.753Z,11.70
2019-05-30T04:35:00.056Z,11.70
2019-05-30T04:35:35.277Z,11.70
2019-05-30T04:36:10.563Z,11.80
2019-05-30T04:36:45.843Z,11.80
2019-05-30T04:37:21.010Z,11.80
2019-05-30T04:37:55.590Z,11.70
2019-05-30T04:38:30.759Z,11.70
2019-05-30T04:39:08.767Z,11.70
2019-05-30T04:39:43.602Z,11.70
2019-05-30T04:40:19.687Z,11.70
2019-05-30T04:40:54.899Z,11.70
2019-05-30T04:41:29.413Z,11.70
2019-05-30T04:42:04.900Z,11.70
2019-05-30T04:42:40.061Z,11.70
2019-05-30T04:43:15.502Z,11.70
2019-05-30T04:44:12.005Z,11.70
2019-05-30T04:44:47.664Z,11.70
2019-05-30T04:45:27.376Z,11.70
2019-05-30T04:45:59.069Z,11.70
2019-05-30T04:46:34.223Z,11.70
2019-05-30T04:47:10.014Z,11.70
2019-05-30T04:47:45.431Z,11.70
2019-05-30T04:48:21.239Z,11.70
2019-05-30T04:48:56.133Z,11.70
2019-05-30T04:49:31.313Z,11.70
2019-05-30T04:50:09.967Z,11.70
2019-05-30T04:50:44.790Z,11.70
2019-05-30T04:51:21.760Z,11.70
2019-05-30T04:51:56.862Z,11.70
2019-05-30T04:52:31.447Z,11.70
2019-05-30T04:53:06.626Z,11.70
2019-05-30T04:53:41.719Z,11.80
2019-05-30T04:54:16.865Z,11.80
2019-05-30T04:54:53.051Z,11.80
2019-05-30T04:55:28.248Z,11.80
2019-05-30T04:56:02.780Z,11.80
2019-05-30T04:56:37.996Z,11.80
2019-05-30T04:57:14.956Z,11.80
2019-05-30T04:57:49.736Z,11.80
2019-05-30T04:58:24.983Z,11.70
2019-05-30T04:59:00.164Z,11.80
2019-05-30T04:59:34.678Z,11.80
2019-05-30T05:00:10.770Z,11.80
2019-05-30T05:00:45.949Z,11.80
2019-05-30T05:01:22.008Z,11.80
2019-05-30T05:01:57.455Z,11.80
2019-05-30T05:02:32.674Z,11.90
2019-05-30T05:03:07.203Z,11.90
2019-05-30T05:03:46.271Z,12.00
2019-05-30T05:04:19.518Z,12.00
2019-05-30T05:04:54.127Z,12.00
2019-05-30T05:05:29.300Z,12.00
2019-05-30T05:06:04.473Z,12.00
2019-05-30T05:06:39.116Z,12.00
2019-05-30T05:07:15.564Z,12.00
2019-05-30T05:07:50.974Z,12.00
2019-05-30T05:08:25.576Z,12.00
2019-05-30T05:09:00.733Z,12.00
2019-05-30T05:09:35.922Z,12.00
2019-05-30T05:10:12.034Z,12.00
2019-05-30T05:10:47.340Z,12.00
2019-05-30T05:11:25.136Z,12.00
2019-05-30T05:11:58.784Z,12.00
2019-05-30T05:12:34.026Z,12.00
2019-05-30T05:13:09.258Z,12.00
2019-05-30T05:13:43.850Z,12.00
2019-05-30T05:14:20.447Z,12.00
2019-05-30T05:14:55.817Z,12.00
2019-05-30T05:15:30.417Z,12.00
2019-05-30T05:16:21.806Z,12.00
2019-05-30T05:16:42.413Z,12.00
2019-05-30T05:17:17.148Z,12.00
2019-05-30T05:17:52.319Z,12.00
2019-05-30T05:18:27.492Z,12.00
2019-05-30T05:19:02.096Z,12.00
2019-05-30T05:19:37.355Z,12.00
2019-05-30T05:20:13.129Z,12.00
2019-05-30T05:20:47.810Z,12.10
2019-05-30T05:21:23.180Z,12.10
2019-05-30T05:21:58.404Z,12.10
2019-05-30T05:22:32.995Z,12.00
2019-05-30T05:23:08.100Z,12.00
2019-05-30T05:23:44.492Z,12.00
2019-05-30T05:24:19.425Z,12.00
2019-05-30T05:24:55.042Z,12.00
2019-05-30T05:25:30.204Z,12.10
2019-05-30T05:26:04.951Z,12.00
2019-05-30T05:26:40.122Z,12.00
2019-05-30T05:27:15.569Z,12.00
2019-05-30T05:27:50.243Z,12.00
2019-05-30T05:28:25.363Z,12.00
2019-05-30T05:29:00.559Z,12.00
2019-05-30T05:29:35.205Z,12.00
2019-05-30T05:30:11.980Z,12.10
2019-05-30T05:30:47.251Z,12.10
2019-05-30T05:31:22.484Z,12.10
2019-05-30T05:31:57.690Z,12.10
2019-05-30T05:32:32.784Z,12.10
2019-05-30T05:33:07.328Z,12.10
2019-05-30T05:33:55.760Z,12.10
2019-05-30T05:34:20.620Z,12.10
2019-05-30T05:34:55.377Z,12.20
2019-05-30T05:35:30.615Z,12.20
2019-05-30T05:36:05.772Z,12.20
2019-05-30T05:36:40.301Z,12.20
2019-05-30T05:37:16.921Z,12.20
2019-05-30T05:37:52.238Z,12.20
2019-05-30T05:38:28.410Z,12.20
2019-05-30T05:39:04.379Z,12.20
2019-05-30T05:39:39.659Z,12.20
2019-05-30T05:40:15.808Z,12.20
2019-05-30T05:40:51.203Z,12.20
2019-05-30T05:41:26.461Z,12.20
2019-05-30T05:42:01.082Z,12.20
2019-05-30T05:42:36.324Z,12.20
2019-05-30T05:43:11.698Z,12.20
2019-05-30T05:43:46.233Z,12.20
2019-05-30T05:44:22.461Z,12.20
2019-05-30T05:44:57.711Z,12.20
2019-05-30T05:45:32.363Z,12.20
2019-05-30T05:46:07.531Z,12.20
2019-05-30T05:46:42.661Z,12.20
2019-05-30T05:47:18.382Z,12.20
2019-05-30T05:47:53.774Z,12.20
2019-05-30T05:48:28.950Z,12.20
2019-05-30T05:49:03.542Z,12.20
2019-05-30T05:49:39.086Z,12.20
2019-05-30T05:50:14.696Z,12.20
2019-05-30T05:50:49.311Z,12.20
2019-05-30T05:51:24.863Z,12.20
2019-05-30T05:52:00.047Z,12.20
2019-05-30T05:52:34.687Z,12.20
2019-05-30T05:53:09.789Z,12.20
2019-05-30T05:53:45.013Z,12.20
2019-05-30T05:54:20.798Z,12.20
2019-05-30T05:54:55.985Z,12.20
2019-05-30T05:55:31.175Z,12.20
2019-05-30T05:56:05.806Z,12.20
2019-05-30T05:56:40.933Z,12.20
2019-05-30T05:57:16.760Z,12.20
2019-05-30T05:57:51.359Z,12.30
2019-05-30T05:58:26.599Z,12.30
2019-05-30T05:59:01.839Z,12.20
2019-05-30T05:59:36.416Z,12.20
2019-05-30T06:00:11.925Z,12.20
2019-05-30T06:00:47.050Z,12.20
2019-05-30T06:01:23.281Z,12.20
2019-05-30T06:01:58.582Z,12.20
2019-05-30T06:02:33.694Z,12.10
2019-05-30T06:03:08.299Z,12.20
2019-05-30T06:03:43.875Z,12.20
2019-05-30T06:04:19.167Z,12.20
2019-05-30T06:04:53.775Z,12.20
2019-05-30T06:05:28.894Z,12.20
2019-05-30T06:06:04.091Z,12.20
2019-05-30T06:06:38.680Z,12.20
2019-05-30T06:07:13.789Z,12.20
2019-05-30T06:07:48.972Z,12.20
2019-05-30T06:08:23.727Z,12.30
2019-05-30T06:08:58.977Z,12.30
2019-05-30T06:09:34.110Z,12.30
2019-05-30T06:10:08.829Z,12.30
2019-05-30T06:10:44.138Z,12.30
2019-05-30T06:11:20.490Z,12.30
2019-05-30T06:11:55.153Z,12.30
2019-05-30T06:12:30.332Z,12.40
2019-05-30T06:13:05.466Z,12.30
2019-05-30T06:13:40.063Z,12.40
2019-05-30T06:14:15.275Z,12.40
2019-05-30T06:14:50.461Z,12.40
2019-05-30T06:15:25.763Z,12.50
2019-05-30T06:16:00.992Z,12.50
2019-05-30T06:16:36.315Z,12.50
2019-05-30T06:17:10.844Z,12.50
2019-05-30T06:17:46.018Z,12.50
2019-05-30T06:18:22.256Z,12.60
2019-05-30T06:18:56.900Z,12.60
2019-05-30T06:19:45.342Z,12.60
2019-05-30T06:20:09.315Z,12.60
2019-05-30T06:20:43.904Z,12.70
2019-05-30T06:21:19.222Z,12.70
2019-05-30T06:21:54.793Z,12.70
2019-05-30T06:22:29.356Z,12.60
2019-05-30T06:23:04.600Z,12.60
2019-05-30T06:23:39.810Z,12.60
2019-05-30T06:24:14.733Z,12.70
2019-05-30T06:24:49.978Z,12.60
2019-05-30T06:25:29.858Z,12.70
2019-05-30T06:26:01.389Z,12.60
2019-05-30T06:26:36.557Z,12.70
2019-05-30T06:27:11.746Z,12.70
2019-05-30T06:27:46.350Z,12.70
2019-05-30T06:28:22.040Z,12.80
2019-05-30T06:28:57.416Z,12.80
2019-05-30T06:29:32.028Z,12.80
2019-05-30T06:30:09.046Z,12.80
2019-05-30T06:30:44.296Z,12.80
2019-05-30T06:31:18.911Z,12.80
2019-05-30T06:31:54.504Z,12.80
2019-05-30T06:32:29.780Z,12.80
2019-05-30T06:33:04.398Z,12.80
2019-05-30T06:33:39.885Z,12.80
2019-05-30T06:34:30.152Z,12.90
2019-05-30T06:34:52.268Z,12.90
2019-05-30T06:35:27.572Z,12.90
2019-05-30T06:36:02.781Z,12.90
2019-05-30T06:36:37.322Z,12.90
2019-05-30T06:37:12.444Z,12.90
2019-05-30T06:37:47.623Z,13.00
2019-05-30T06:38:23.129Z,12.90
2019-05-30T06:38:58.512Z,13.00
2019-05-30T06:39:33.693Z,13.00
2019-05-30T06:40:10.053Z,13.00
2019-05-30T06:40:45.232Z,13.00
2019-05-30T06:41:21.414Z,13.00
2019-05-30T06:41:56.103Z,13.10
2019-05-30T06:42:31.271Z,13.00
2019-05-30T06:43:06.371Z,13.10
2019-05-30T06:43:40.912Z,13.10
2019-05-30T06:44:16.158Z,13.10
2019-05-30T06:44:51.336Z,13.10
2019-05-30T06:45:26.814Z,13.10
2019-05-30T06:46:02.098Z,13.00
2019-05-30T06:46:37.264Z,13.10
2019-05-30T06:47:11.904Z,13.10
2019-05-30T06:47:47.067Z,13.10
2019-05-30T06:48:22.594Z,13.10
2019-05-30T06:48:57.251Z,13.20
2019-05-30T06:49:32.419Z,13.20
2019-05-30T06:50:08.639Z,13.20
2019-05-30T06:50:43.243Z,13.30
2019-05-30T06:51:18.342Z,13.30
2019-05-30T06:51:53.453Z,13.40
2019-05-30T06:52:29.161Z,13.40
2019-05-30T06:53:04.475Z,13.40
2019-05-30T06:53:39.868Z,13.40
2019-05-30T06:54:14.489Z,13.40
2019-05-30T06:54:49.668Z,13.40
2019-05-30T06:55:25.206Z,13.40
2019-05-30T06:55:59.986Z,13.40
2019-05-30T06:56:35.149Z,13.50
2019-05-30T06:57:10.361Z,13.50
2019-05-30T06:57:44.947Z,13.50
2019-05-30T06:58:35.312Z,13.50
2019-05-30T06:58:57.024Z,13.50
2019-05-30T06:59:31.924Z,13.50
2019-05-30T07:00:08.640Z,13.60
2019-05-30T07:00:43.843Z,13.60
2019-05-30T07:01:18.814Z,13.70
2019-05-30T07:01:54.114Z,13.70
2019-05-30T07:02:30.464Z,13.70
2019-05-30T07:03:05.300Z,13.70
2019-05-30T07:03:40.805Z,13.70
2019-05-30T07:04:16.601Z,13.80
2019-05-30T07:04:52.902Z,13.80
2019-05-30T07:05:29.936Z,13.90
2019-05-30T07:06:05.661Z,13.90
2019-05-30T07:06:40.878Z,13.90
2019-05-30T07:07:16.415Z,13.90
2019-05-30T07:07:52.017Z,13.90
2019-05-30T07:08:26.864Z,14.00
2019-05-30T07:09:02.045Z,14.00
2019-05-30T07:09:37.208Z,14.00
2019-05-30T07:10:12.696Z,14.00
2019-05-30T07:10:47.861Z,14.10
2019-05-30T07:11:22.984Z,14.10
2019-05-30T07:11:57.562Z,14.20
2019-05-30T07:12:33.244Z,14.20
2019-05-30T07:13:08.410Z,14.20
2019-05-30T07:13:43.113Z,14.30
2019-05-30T07:14:18.295Z,14.40
2019-05-30T07:14:53.489Z,14.50
2019-05-30T07:15:29.188Z,14.50
2019-05-30T07:16:04.728Z,14.60
2019-05-30T07:16:39.919Z,14.70
2019-05-30T07:17:14.456Z,14.70
2019-05-30T07:17:49.641Z,14.70
2019-05-30T07:18:25.409Z,14.80
2019-05-30T07:19:00.132Z,14.80
2019-05-30T07:19:37.737Z,14.70
2019-05-30T07:20:13.445Z,14.70
2019-05-30T07:20:48.021Z,14.80
2019-05-30T07:21:23.537Z,14.80
2019-05-30T07:21:58.757Z,14.80
2019-05-30T07:22:33.879Z,14.80
2019-05-30T07:23:11.114Z,14.80
2019-05-30T07:23:46.299Z,14.90
2019-05-30T07:24:23.669Z,14.90
2019-05-30T07:24:57.772Z,14.90
2019-05-30T07:25:34.108Z,14.90
2019-05-30T07:26:09.174Z,14.90
2019-05-30T07:26:44.339Z,15.00
2019-05-30T07:27:19.802Z,15.10
2019-05-30T07:27:54.378Z,15.10
2019-05-30T07:28:29.918Z,15.20
2019-05-30T07:29:05.752Z,15.20
2019-05-30T07:29:40.328Z,15.20
2019-05-30T07:30:16.157Z,15.20
2019-05-30T07:30:51.283Z,15.20
2019-05-30T07:31:26.100Z,15.30
2019-05-30T07:32:01.447Z,15.30
2019-05-30T07:32:36.660Z,15.30
2019-05-30T07:33:11.264Z,15.30
2019-05-30T07:33:48.984Z,15.40
2019-05-30T07:34:23.899Z,15.40
2019-05-30T07:35:06.861Z,15.30
2019-05-30T07:35:35.429Z,15.30
2019-05-30T07:36:10.672Z,15.40
2019-05-30T07:36:45.257Z,15.30
2019-05-30T07:37:20.433Z,15.30
2019-05-30T07:37:55.608Z,15.30
2019-05-30T07:38:30.502Z,15.30
2019-05-30T07:39:08.154Z,15.30
2019-05-30T07:39:43.278Z,15.20
2019-05-30T07:40:19.978Z,15.20
2019-05-30T07:40:55.226Z,15.10
2019-05-30T07:41:30.684Z,15.10
2019-05-30T07:42:06.782Z,15.20